createdAt,value
2022-11-03T00:18:30.199Z,5.20
2022-11-03T00:40:13.158Z,5.40
2022-11-03T00:51:48.617Z,5.30
2022-11-03T01:03:41.053Z,5.30
2022-11-03T01:14:29.225Z,5.00
2022-11-03T01:25:35.676Z,4.90
2022-11-03T01:49:28.081Z,4.60
2022-11-03T02:00:06.534Z,4.40
2022-11-03T02:22:13.924Z,4.30
2022-11-03T02:32:58.545Z,4.30
2022-11-03T02:43:44.694Z,4.40
2022-11-03T02:54:54.878Z,4.50
2022-11-03T03:06:26.771Z,4.40
2022-11-03T03:28:18.969Z,4.40
2022-11-03T03:39:07.738Z,4.40
2022-11-03T03:49:41.420Z,4.30
2022-11-03T04:00:26.982Z,4.40
2022-11-03T04:11:55.676Z,4.20
2022-11-03T04:23:35.801Z,4.20
2022-11-03T04:33:45.261Z,4.10
2022-11-03T04:44:14.906Z,4.20
2022-11-03T04:54:36.616Z,4.20
2022-11-03T05:05:00.760Z,4.30
2022-11-03T05:15:32.565Z,4.20
2022-11-03T05:25:58.861Z,4.20
2022-11-03T05:36:23.626Z,4.10
2022-11-03T05:46:46.346Z,4.10
2022-11-03T05:57:11.445Z,4.20
2022-11-03T06:07:35.655Z,4.30
2022-11-03T06:17:58.016Z,4.40
2022-11-03T06:28:24.850Z,4.60
2022-11-03T06:38:51.133Z,4.70
2022-11-03T06:49:28.351Z,4.70
2022-11-03T07:00:06.741Z,4.90
2022-11-03T07:10:35.168Z,5.00
2022-11-03T07:20:57.046Z,5.10
2022-11-03T07:31:24.322Z,5.70
2022-11-03T07:41:45.752Z,6.60
2022-11-03T07:52:14.844Z,7.30
2022-11-03T08:02:42.514Z,7.50
2022-11-03T08:13:05.416Z,7.80
2022-11-03T08:23:27.992Z,8.20
2022-11-03T08:33:51.177Z,8.50
2022-11-03T08:44:12.948Z,9.10
2022-11-03T08:54:35.937Z,9.80
2022-11-03T09:04:57.194Z,10.40
2022-11-03T09:15:20.173Z,10.90
2022-11-03T09:25:41.570Z,11.00
2022-11-03T09:36:04.461Z,11.40
2022-11-03T09:46:27.035Z,12.20
2022-11-03T09:56:51.268Z,12.40
2022-11-03T10:07:13.216Z,12.60
2022-11-03T10:17:35.926Z,12.70
2022-11-03T10:28:19.250Z,13.30
2022-11-03T10:50:57.004Z,13.40
2022-11-03T11:01:18.441Z,13.00
2022-11-03T11:12:12.295Z,13.40
2022-11-03T11:22:55.497Z,13.20
2022-11-03T11:33:28.135Z,13.10
2022-11-03T11:43:52.046Z,13.30
2022-11-03T12:07:41.425Z,13.10
2022-11-03T12:19:34.066Z,13.20
2022-11-03T12:29:17.485Z,13.30
2022-11-03T12:40:00.074Z,13.40
2022-11-03T12:50:21.619Z,13.50
2022-11-03T13:00:49.928Z,13.90
2022-11-03T13:11:34.441Z,13.90
2022-11-03T13:22:06.021Z,14.00
2022-11-03T13:33:09.695Z,14.00
2022-11-03T13:44:35.811Z,14.00
2022-11-03T13:56:08.477Z,13.80
2022-11-03T14:06:40.568Z,13.60
2022-11-03T14:17:02.076Z,13.50
2022-11-03T14:27:24.703Z,13.20
2022-11-03T14:37:45.940Z,13.00
2022-11-03T14:48:11.970Z,12.70
2022-11-03T14:58:48.505Z,12.40
2022-11-03T15:09:19.615Z,12.20
2022-11-03T15:19:50.617Z,11.90
2022-11-03T15:30:36.316Z,11.70
2022-11-03T15:41:47.023Z,11.50
2022-11-03T15:52:17.351Z,11.40
2022-11-03T16:03:10.287Z,11.30
2022-11-03T16:14:19.365Z,11.10
2022-11-03T16:25:21.619Z,10.90
2022-11-03T17:01:50.081Z,10.70
2022-11-03T17:11:37.534Z,11.10
2022-11-03T17:34:10.667Z,11.20
2022-11-03T17:44:39.503Z,11.30
2022-11-03T17:55:05.114Z,11.20
2022-11-03T18:05:31.845Z,11.10
2022-11-03T18:15:54.418Z,11.00
2022-11-03T18:27:03.070Z,11.10
2022-11-03T18:37:37.454Z,11.20
2022-11-03T18:48:20.366Z,11.30
2022-11-03T18:58:42.156Z,11.20
2022-11-03T19:09:05.187Z,11.20
2022-11-03T19:19:28.758Z,11.20
2022-11-03T19:29:54.231Z,11.10
2022-11-03T19:40:17.950Z,10.90
2022-11-03T19:50:41.734Z,10.60
2022-11-03T20:01:08.489Z,10.40
2022-11-03T20:11:32.216Z,10.30
2022-11-03T20:22:01.476Z,10.40
2022-11-03T20:32:25.610Z,10.20
2022-11-03T20:42:49.764Z,10.00
2022-11-03T20:53:20.397Z,9.80
2022-11-03T21:03:58.646Z,9.60
2022-11-03T21:14:26.792Z,9.40
2022-11-03T21:24:50.731Z,9.30
2022-11-03T21:35:19.633Z,9.10
2022-11-03T21:45:41.972Z,9.10
2022-11-03T21:56:14.320Z,9.20
2022-11-03T22:06:39.366Z,9.30
2022-11-03T22:17:02.475Z,9.30
2022-11-03T22:27:26.256Z,9.30
2022-11-03T22:38:13.677Z,9.20
2022-11-03T22:48:39.059Z,9.20
2022-11-03T22:59:02.140Z,9.00
2022-11-03T23:09:23.882Z,9.00
2022-11-03T23:20:04.313Z,8.90
2022-11-03T23:30:25.989Z,8.70
2022-11-03T23:40:48.681Z,8.70
2022-11-03T23:51:10.166Z,8.60
